This is the latest recevied weather packets stored in our database for station/object KC1TEM-13. If no packets are shown the sender has not sent any weather packets the latest 10 day(s).
| Time | Temp. | Humidity | Pressure | Rain* | Wind** | Luminosity | Snow |
|---|---|---|---|---|---|---|---|
| 1777990777 | 21.11° C | 49% | 1009.5 hPa | 0 mm | - | 722 W/m² | - |
| 1777990473 | 21.11° C | 48% | 1009.6 hPa | 0 mm | - | 713 W/m² | - |
| 1777989867 | 20° C | 50% | 1009.5 hPa | 0 mm | - | 661 W/m² | - |
| 1777989564 | 20° C | 50% | 1009.8 hPa | 0 mm | - | 797 W/m² | - |
| 1777989260 | 19.44° C | 53% | 1009.5 hPa | 0 mm | - | 279 W/m² | - |
| 1777988957 | 19.44° C | 52% | 1009.5 hPa | 0 mm | - | 209 W/m² | - |
| 1777988653 | 19.44° C | 51% | 1009.5 hPa | 0 mm | - | 287 W/m² | - |
| 1777988350 | 18.89° C | 53% | 1009.5 hPa | 0 mm | - | 585 W/m² | - |
| 1777988047 | 18.33° C | 54% | 1009.6 hPa | 0 mm | - | 263 W/m² | - |
| 1777987742 | 18.33° C | 54% | 1009.6 hPa | 0 mm | - | 126 W/m² | - |
| 1777987440 | 18.33° C | 55% | 1009.3 hPa | 0 mm | - | 177 W/m² | - |
| 1777987137 | 18.89° C | 52% | 1009.9 hPa | 0 mm | - | 118 W/m² | - |
| 1777986834 | 18.89° C | 51% | 1009.6 hPa | 0 mm | - | 174 W/m² | - |
| 1777986532 | 19.44° C | 51% | 1009.5 hPa | 0 mm | - | 500 W/m² | - |
| 1777986230 | 18.89° C | 53% | 1009.7 hPa | 0 mm | - | 338 W/m² | - |
| 1777985927 | 18.89° C | 54% | 1009.5 hPa | 0 mm | - | 196 W/m² | - |
| 1777985625 | 18.33° C | 55% | 1009.7 hPa | 0 mm | - | 389 W/m² | - |
| 1777985320 | 17.78° C | 56% | 1009.8 hPa | 0 mm | - | 394 W/m² | - |
| 1777985017 | 17.78° C | 55% | 1009.9 hPa | 0 mm | - | 423 W/m² | - |
| 1777984713 | 17.22° C | 56% | 1009.4 hPa | 0 mm | - | 294 W/m² | - |
| 1777984410 | 17.22° C | 55% | 1009.5 hPa | 0 mm | - | 178 W/m² | - |
| 1777984106 | 17.78° C | 54% | 1009.6 hPa | 0 mm | - | 197 W/m² | - |
| 1777983804 | 17.78° C | 55% | 1009.8 hPa | 0 mm | - | 385 W/m² | - |
| 1777983500 | 17.78° C | 56% | 1009.6 hPa | 0 mm | - | 205 W/m² | - |
| 1777983197 | 16.67° C | 57% | 1009.6 hPa | 0 mm | - | 258 W/m² | - |
* Rain latest hour (hover to see other rain measurements)
** Current wind speed in m/s (hover to see current wind gust speed)